createdAt,value
2017-11-03T00:01:58.760Z,49.43
2017-11-03T00:04:36.336Z,49.29
2017-11-03T00:07:13.475Z,48.76
2017-11-03T00:09:54.778Z,49.40
2017-11-03T00:12:33.190Z,49.58
2017-11-03T00:15:25.688Z,49.54
2017-11-03T00:18:04.958Z,49.54
2017-11-03T00:20:44.242Z,50.05
2017-11-03T00:23:21.154Z,49.96
2017-11-03T00:26:03.545Z,50.58
2017-11-03T00:28:40.754Z,49.96
2017-11-03T00:31:18.193Z,49.85
2017-11-03T00:33:56.942Z,49.71
2017-11-03T00:36:40.047Z,49.33
2017-11-03T00:39:20.777Z,49.22
2017-11-03T00:41:57.898Z,48.62
2017-11-03T00:44:47.672Z,48.32
2017-11-03T00:47:25.167Z,47.99
2017-11-03T00:50:02.440Z,47.57
2017-11-03T00:52:42.093Z,47.68
2017-11-03T00:55:21.393Z,47.72
2017-11-03T01:03:59.270Z,47.85
2017-11-03T01:06:48.866Z,47.96
2017-11-03T01:09:41.105Z,48.23
2017-11-03T01:12:17.551Z,48.49
2017-11-03T01:14:55.063Z,48.93
2017-11-03T01:17:31.574Z,49.16
2017-11-03T01:20:13.571Z,49.25
2017-11-03T01:22:49.973Z,48.98
2017-11-03T01:25:31.507Z,48.90
2017-11-03T01:28:17.008Z,48.82
2017-11-03T01:30:54.867Z,48.79
2017-11-03T01:33:32.073Z,48.68
2017-11-03T01:36:12.313Z,48.11
2017-11-03T01:38:59.534Z,48.03
2017-11-03T01:41:35.246Z,47.60
2017-11-03T01:44:12.286Z,47.34
2017-11-03T01:46:48.617Z,47.20
2017-11-03T01:49:37.398Z,47.15
2017-11-03T01:52:14.540Z,47.03
2017-11-03T01:54:50.902Z,46.75
2017-11-03T01:57:30.890Z,46.51
2017-11-03T02:00:08.325Z,46.71
2017-11-03T02:02:53.865Z,47.00
2017-11-03T02:05:31.128Z,46.85
2017-11-03T02:08:07.958Z,46.58
2017-11-03T02:10:49.224Z,46.24
2017-11-03T02:13:29.345Z,46.00
2017-11-03T02:16:16.692Z,45.71
2017-11-03T02:18:54.786Z,45.98
2017-11-03T02:21:32.577Z,46.25
2017-11-03T02:24:10.173Z,46.21
2017-11-03T02:26:49.095Z,46.28
2017-11-03T02:29:33.957Z,46.75
2017-11-03T02:32:16.398Z,47.19
2017-11-03T02:34:53.218Z,46.79
2017-11-03T02:37:32.377Z,46.75
2017-11-03T02:40:09.058Z,47.31
2017-11-03T02:42:46.303Z,47.10
2017-11-03T02:45:24.853Z,47.32
2017-11-03T02:48:03.554Z,47.55
2017-11-03T02:50:43.330Z,47.32
2017-11-03T02:53:28.220Z,47.17
2017-11-03T02:56:07.222Z,47.13
2017-11-03T03:01:45.385Z,46.90
2017-11-03T03:04:21.854Z,47.11
2017-11-03T03:07:02.405Z,46.92
2017-11-03T03:09:44.029Z,46.44
2017-11-03T03:12:20.651Z,46.68
2017-11-03T03:15:13.095Z,46.38
2017-11-03T03:17:52.419Z,46.64
2017-11-03T03:20:37.438Z,46.73
2017-11-03T03:23:21.037Z,46.84
2017-11-03T03:26:09.545Z,47.18
2017-11-03T03:28:51.977Z,47.31
2017-11-03T03:31:29.529Z,47.99
2017-11-03T03:37:05.377Z,48.38
2017-11-03T03:39:50.019Z,48.31
2017-11-03T03:42:35.058Z,48.21
2017-11-03T03:45:18.337Z,48.52
2017-11-03T03:47:54.915Z,48.72
2017-11-03T03:50:38.507Z,48.93
2017-11-03T03:53:15.163Z,49.05
2017-11-03T03:55:56.739Z,49.05
2017-11-03T03:58:34.815Z,48.98
2017-11-03T04:01:18.819Z,48.87
2017-11-03T04:03:55.572Z,48.74
2017-11-03T04:06:32.970Z,49.12
2017-11-03T04:09:13.821Z,48.93
2017-11-03T04:11:53.638Z,49.20
2017-11-03T04:14:31.525Z,49.01
2017-11-03T04:17:10.667Z,49.07
2017-11-03T04:19:47.125Z,49.29
2017-11-03T04:22:24.096Z,49.44
2017-11-03T04:25:01.193Z,49.21
2017-11-03T04:27:43.085Z,48.84
2017-11-03T04:30:28.494Z,48.85
2017-11-03T04:35:50.737Z,48.65
2017-11-03T04:38:30.347Z,48.60
2017-11-03T04:41:07.646Z,48.07
2017-11-03T04:43:46.278Z,48.34
2017-11-03T04:46:26.876Z,48.28
2017-11-03T04:49:09.348Z,48.45
2017-11-03T04:51:46.211Z,48.22
2017-11-03T04:54:32.701Z,47.96
2017-11-03T05:04:37.934Z,47.55
2017-11-03T05:07:20.101Z,47.37
2017-11-03T05:10:08.071Z,47.16
2017-11-03T05:12:47.285Z,46.81
2017-11-03T05:15:25.759Z,46.81
2017-11-03T05:18:02.704Z,46.45
2017-11-03T05:20:44.316Z,46.65
2017-11-03T05:23:21.090Z,46.73
2017-11-03T05:25:57.782Z,46.63
2017-11-03T05:28:35.575Z,46.44
2017-11-03T05:31:16.514Z,46.51
2017-11-03T05:33:53.345Z,45.93
2017-11-03T05:36:30.075Z,46.19
2017-11-03T05:39:09.794Z,45.73
2017-11-03T05:41:48.823Z,45.55
2017-11-03T05:44:36.129Z,45.32
2017-11-03T05:47:12.494Z,44.92
2017-11-03T05:49:49.684Z,44.52
2017-11-03T05:52:27.792Z,44.53
2017-11-03T05:55:04.883Z,44.31
2017-11-03T05:57:42.802Z,44.64
2017-11-03T06:00:20.820Z,44.23
2017-11-03T06:02:58.102Z,44.71
2017-11-03T06:05:37.330Z,44.26
2017-11-03T06:08:13.822Z,44.14
2017-11-03T06:10:50.556Z,44.04
2017-11-03T06:13:27.505Z,43.60
2017-11-03T06:16:04.262Z,43.05
2017-11-03T06:18:41.460Z,42.35
2017-11-03T06:21:21.331Z,41.58
2017-11-03T06:24:00.231Z,41.55
2017-11-03T06:26:43.908Z,40.90
2017-11-03T06:29:25.960Z,40.43
2017-11-03T06:32:04.831Z,40.98
2017-11-03T06:34:44.010Z,41.47
2017-11-03T06:37:21.982Z,41.21
2017-11-03T06:39:58.704Z,41.45
2017-11-03T06:42:40.734Z,42.07
2017-11-03T06:45:21.387Z,42.09
2017-11-03T06:50:49.249Z,42.01
2017-11-03T06:53:27.708Z,42.12
2017-11-03T06:56:04.749Z,41.56
2017-11-03T06:58:33.982Z,41.36
2017-11-03T07:01:13.032Z,41.26
2017-11-03T07:03:50.186Z,41.95
2017-11-03T07:06:27.445Z,41.78
2017-11-03T07:09:05.073Z,41.94
2017-11-03T07:11:42.235Z,42.01
2017-11-03T07:17:07.493Z,41.44
2017-11-03T07:19:44.151Z,41.34
2017-11-03T07:22:20.796Z,41.05
2017-11-03T07:25:02.936Z,41.16
2017-11-03T07:27:39.382Z,40.48
2017-11-03T07:30:21.131Z,40.17
2017-11-03T07:32:59.475Z,40.06
2017-11-03T07:35:50.913Z,39.39
2017-11-03T07:38:32.639Z,39.51
2017-11-03T07:41:16.060Z,39.84
2017-11-03T07:43:57.223Z,40.45
2017-11-03T07:46:40.691Z,40.23
2017-11-03T07:49:23.747Z,40.71
2017-11-03T07:52:00.368Z,40.87
2017-11-03T07:54:38.879Z,41.41
2017-11-03T07:57:27.963Z,41.44
2017-11-03T08:00:04.352Z,41.58
2017-11-03T08:02:43.331Z,41.46
2017-11-03T08:05:21.872Z,41.14
2017-11-03T08:07:58.450Z,40.80
2017-11-03T08:10:39.419Z,40.23
2017-11-03T08:13:16.018Z,40.21
2017-11-03T08:15:55.016Z,40.00
2017-11-03T08:18:33.699Z,40.54
2017-11-03T08:21:14.766Z,39.64
2017-11-03T08:23:59.287Z,39.03
2017-11-03T08:26:37.292Z,39.13
2017-11-03T08:34:53.457Z,39.15
2017-11-03T08:37:30.143Z,39.16
2017-11-03T08:40:18.610Z,38.53
2017-11-03T08:45:43.452Z,37.86
2017-11-03T08:48:20.583Z,38.58
2017-11-03T08:50:59.068Z,38.37
2017-11-03T08:53:40.008Z,38.51
2017-11-03T09:01:58.401Z,38.05
2017-11-03T09:04:27.414Z,37.30
2017-11-03T09:06:56.707Z,37.00
2017-11-03T09:09:35.719Z,36.84
2017-11-03T09:12:17.499Z,37.28
2017-11-03T09:15:04.268Z,37.41
2017-11-03T09:17:43.462Z,37.05
2017-11-03T09:20:23.510Z,36.38
2017-11-03T09:23:04.539Z,37.22
2017-11-03T09:25:45.392Z,36.60
2017-11-03T09:28:33.114Z,36.29
2017-11-03T09:31:11.826Z,36.61
2017-11-03T09:33:49.932Z,36.90
2017-11-03T09:36:26.910Z,36.58
2017-11-03T09:39:03.583Z,36.92
2017-11-03T09:41:40.977Z,36.41
2017-11-03T09:44:21.812Z,35.61
2017-11-03T09:46:58.334Z,35.75
2017-11-03T09:49:40.513Z,36.09
2017-11-03T09:52:18.780Z,36.47
2017-11-03T09:54:55.220Z,35.83
2017-11-03T09:57:31.943Z,36.82
2017-11-03T10:00:08.540Z,36.83
2017-11-03T10:02:46.134Z,36.50
2017-11-03T10:05:22.986Z,37.33
2017-11-03T10:08:01.842Z,37.52
2017-11-03T10:10:38.769Z,36.24
2017-11-03T10:13:17.402Z,35.08
2017-11-03T10:15:59.678Z,35.04
2017-11-03T10:21:15.767Z,35.31
2017-11-03T10:23:54.222Z,35.46
2017-11-03T10:26:33.326Z,35.65
2017-11-03T10:29:15.921Z,35.69
2017-11-03T10:31:52.450Z,36.31
2017-11-03T10:34:30.224Z,36.33
2017-11-03T10:37:14.410Z,36.04
2017-11-03T10:39:53.826Z,35.94
2017-11-03T10:42:31.350Z,36.36
2017-11-03T10:45:08.131Z,35.83
2017-11-03T10:47:50.281Z,36.30
2017-11-03T10:50:27.401Z,36.16
2017-11-03T10:53:08.558Z,36.33
2017-11-03T10:55:46.931Z,36.09
2017-11-03T10:58:17.036Z,36.57
2017-11-03T11:00:53.354Z,36.62
2017-11-03T11:03:34.558Z,36.22
2017-11-03T11:06:16.196Z,35.79
2017-11-03T11:08:55.575Z,36.15
2017-11-03T11:11:32.592Z,36.02
2017-11-03T11:14:11.196Z,36.41
2017-11-03T11:16:47.818Z,36.82
2017-11-03T11:19:29.673Z,36.72
2017-11-03T11:22:17.989Z,37.24
2017-11-03T11:24:55.717Z,37.57
2017-11-03T11:27:36.566Z,38.47
2017-11-03T11:30:15.821Z,38.74
2017-11-03T11:32:53.362Z,38.62
2017-11-03T11:35:34.515Z,39.21
2017-11-03T11:38:11.324Z,39.28
2017-11-03T11:40:49.140Z,39.71
2017-11-03T11:43:27.211Z,39.89
2017-11-03T11:46:11.048Z,40.41
2017-11-03T11:48:47.912Z,40.36
2017-11-03T11:51:30.465Z,40.78
2017-11-03T11:54:11.193Z,41.28
2017-11-03T11:56:52.661Z,41.02
2017-11-03T11:59:30.223Z,41.13
2017-11-03T12:02:07.084Z,40.69
2017-11-03T12:04:58.449Z,41.28
2017-11-03T12:07:36.638Z,41.22
2017-11-03T12:10:13.030Z,41.20
2017-11-03T12:12:50.914Z,41.12
2017-11-03T12:15:39.133Z,41.59
2017-11-03T12:18:18.024Z,41.71
2017-11-03T12:20:59.233Z,41.80
2017-11-03T12:23:38.808Z,41.43
2017-11-03T12:26:18.235Z,41.05
2017-11-03T12:28:56.668Z,40.96
2017-11-03T12:31:33.576Z,40.90
2017-11-03T12:34:12.038Z,40.78
2017-11-03T12:36:53.042Z,40.90
2017-11-03T12:39:31.616Z,41.15
2017-11-03T12:42:12.561Z,41.32
2017-11-03T12:44:55.452Z,41.35
2017-11-03T12:47:31.928Z,41.57
2017-11-03T12:50:11.076Z,41.74
2017-11-03T12:52:47.510Z,40.33
2017-11-03T12:55:29.388Z,40.55
2017-11-03T12:57:58.520Z,40.76
2017-11-03T13:00:37.740Z,40.91
2017-11-03T13:03:06.774Z,41.18
2017-11-03T13:05:44.920Z,40.94
2017-11-03T13:08:26.459Z,41.38
2017-11-03T13:11:05.465Z,41.23
2017-11-03T13:13:41.871Z,41.36
2017-11-03T13:16:28.218Z,42.02
2017-11-03T13:19:05.019Z,41.48
2017-11-03T13:21:46.079Z,41.96
2017-11-03T13:24:22.775Z,42.07
2017-11-03T13:27:05.030Z,42.37
2017-11-03T13:29:41.674Z,43.04
2017-11-03T13:32:20.107Z,42.94
2017-11-03T13:34:57.092Z,43.02
2017-11-03T13:37:34.462Z,43.16
2017-11-03T13:40:12.643Z,43.53
2017-11-03T13:42:55.726Z,43.57
2017-11-03T13:45:41.454Z,43.92
2017-11-03T13:48:18.481Z,44.10
2017-11-03T13:50:55.620Z,44.81
2017-11-03T13:53:39.330Z,44.93
2017-11-03T13:56:20.042Z,45.11
2017-11-03T13:59:05.003Z,45.74
2017-11-03T14:01:41.622Z,46.04
2017-11-03T14:04:25.773Z,46.37
2017-11-03T14:07:02.521Z,47.02
2017-11-03T14:09:45.120Z,48.53
2017-11-03T14:12:28.011Z,49.84
2017-11-03T14:15:14.195Z,51.81
2017-11-03T14:17:55.699Z,52.89
2017-11-03T14:20:42.864Z,53.50
2017-11-03T14:23:22.080Z,53.60
2017-11-03T14:26:02.053Z,53.76
2017-11-03T14:28:44.085Z,52.66
2017-11-03T14:31:20.440Z,53.20
2017-11-03T14:33:58.327Z,53.58
2017-11-03T14:36:45.829Z,52.43
2017-11-03T14:39:26.596Z,52.22
2017-11-03T14:42:12.401Z,52.15
2017-11-03T14:44:50.612Z,52.00
2017-11-03T14:47:28.822Z,52.24
2017-11-03T14:50:10.525Z,52.07
2017-11-03T14:52:49.001Z,51.77
2017-11-03T14:55:31.547Z,51.68
2017-11-03T14:58:00.842Z,51.09
2017-11-03T15:00:37.140Z,51.13
2017-11-03T15:03:15.393Z,50.85
2017-11-03T15:05:54.484Z,50.33
2017-11-03T15:08:24.703Z,50.75
2017-11-03T15:11:01.212Z,50.68
2017-11-03T15:13:40.910Z,50.87
2017-11-03T15:16:30.378Z,51.12
2017-11-03T15:19:15.933Z,51.01
2017-11-03T15:21:56.681Z,50.94
2017-11-03T15:24:38.214Z,50.96
2017-11-03T15:27:16.911Z,51.07
2017-11-03T15:29:54.613Z,51.48
2017-11-03T15:32:43.777Z,51.35
2017-11-03T15:38:04.658Z,51.49
2017-11-03T15:40:45.758Z,51.64
2017-11-03T15:43:22.009Z,51.82
2017-11-03T15:46:04.144Z,51.85
2017-11-03T15:48:45.661Z,51.95
2017-11-03T15:51:23.177Z,51.88
2017-11-03T15:54:01.112Z,51.87
2017-11-03T15:56:38.068Z,52.01
2017-11-03T15:59:29.229Z,52.01
2017-11-03T16:02:07.548Z,52.29
2017-11-03T16:04:50.656Z,52.35
2017-11-03T16:07:32.709Z,52.96
2017-11-03T16:10:20.516Z,54.34
2017-11-03T16:13:02.115Z,54.22
2017-11-03T16:15:42.787Z,54.44
2017-11-03T16:18:25.754Z,54.51
2017-11-03T16:21:02.469Z,55.39
2017-11-03T16:23:41.510Z,53.83
2017-11-03T16:26:18.234Z,54.83
2017-11-03T16:28:56.150Z,56.05
2017-11-03T16:31:35.148Z,55.41
2017-11-03T16:34:15.962Z,55.30
2017-11-03T16:36:52.466Z,55.90
2017-11-03T16:39:37.574Z,55.41
2017-11-03T16:42:21.019Z,55.42
2017-11-03T16:45:02.770Z,56.83
2017-11-03T16:47:38.949Z,56.88
2017-11-03T16:50:15.650Z,55.69
2017-11-03T16:52:54.484Z,56.30
2017-11-03T16:58:16.400Z,57.63
2017-11-03T17:00:53.793Z,57.59
2017-11-03T17:03:31.021Z,57.28
2017-11-03T17:06:11.853Z,58.49
2017-11-03T17:08:51.022Z,58.08
2017-11-03T17:11:30.967Z,57.65
2017-11-03T17:14:12.173Z,58.54
2017-11-03T17:16:52.960Z,58.64
2017-11-03T17:19:30.665Z,58.85
2017-11-03T17:22:09.254Z,59.22
2017-11-03T17:24:48.088Z,60.37
2017-11-03T17:27:24.974Z,59.66
2017-11-03T17:30:02.857Z,59.39
2017-11-03T17:32:49.389Z,59.06
2017-11-03T17:35:26.084Z,59.68
2017-11-03T17:38:03.539Z,59.20
2017-11-03T17:40:40.181Z,59.38
2017-11-03T17:43:19.561Z,59.33
2017-11-03T17:46:00.518Z,59.36
2017-11-03T17:48:37.890Z,59.15
2017-11-03T17:51:16.064Z,59.32
2017-11-03T17:53:54.441Z,59.26
2017-11-03T17:56:32.132Z,59.69
2017-11-03T17:59:20.054Z,60.42
2017-11-03T18:01:56.684Z,60.32
2017-11-03T18:04:33.491Z,60.59
2017-11-03T18:07:10.289Z,60.55
2017-11-03T18:09:57.510Z,60.66
2017-11-03T18:12:34.686Z,61.15
2017-11-03T18:15:15.686Z,60.78
2017-11-03T18:17:57.055Z,62.29
2017-11-03T18:20:35.550Z,62.22
2017-11-03T18:23:17.616Z,62.04
2017-11-03T18:25:55.265Z,62.61
2017-11-03T18:28:33.655Z,62.42
2017-11-03T18:31:10.755Z,62.58
2017-11-03T18:33:52.702Z,62.03
2017-11-03T18:36:32.790Z,61.53
2017-11-03T18:39:18.120Z,62.54
2017-11-03T18:41:59.134Z,62.00
2017-11-03T18:44:40.363Z,62.84
2017-11-03T18:47:26.976Z,63.49
2017-11-03T18:50:07.797Z,63.29
2017-11-03T18:52:44.495Z,63.21
2017-11-03T18:55:22.917Z,64.31
2017-11-03T18:57:54.633Z,65.13
2017-11-03T19:00:33.759Z,64.80
2017-11-03T19:03:11.591Z,65.52
2017-11-03T19:05:48.381Z,65.40
2017-11-03T19:08:25.254Z,64.44
2017-11-03T19:11:04.177Z,65.30
2017-11-03T19:13:51.224Z,65.83
2017-11-03T19:16:32.294Z,66.30
2017-11-03T19:19:08.768Z,66.66
2017-11-03T19:21:46.552Z,66.99
2017-11-03T19:24:39.674Z,67.11
2017-11-03T19:27:16.400Z,67.25
2017-11-03T19:29:58.812Z,67.84
2017-11-03T19:32:45.645Z,68.60
2017-11-03T19:35:23.416Z,68.18
2017-11-03T19:38:01.508Z,68.67
2017-11-03T19:40:41.600Z,69.19
2017-11-03T19:43:18.407Z,69.19
2017-11-03T19:45:57.136Z,69.15
2017-11-03T19:48:42.632Z,68.62
2017-11-03T19:51:22.581Z,68.47
2017-11-03T19:53:59.784Z,68.70
2017-11-03T19:56:39.109Z,68.56
2017-11-03T19:59:15.908Z,68.84
2017-11-03T20:01:52.671Z,68.72
2017-11-03T20:04:29.541Z,69.26
2017-11-03T20:07:08.119Z,69.30
2017-11-03T20:09:44.931Z,69.73
2017-11-03T20:12:27.915Z,70.13
2017-11-03T20:15:04.525Z,70.01
2017-11-03T20:17:46.960Z,69.60
2017-11-03T20:20:25.773Z,69.53
2017-11-03T20:23:04.941Z,69.86
2017-11-03T20:25:45.653Z,69.43
2017-11-03T20:28:24.327Z,69.57
2017-11-03T20:31:03.282Z,69.48
2017-11-03T20:33:43.621Z,69.52
2017-11-03T20:36:20.881Z,69.26
2017-11-03T20:38:58.084Z,68.93
2017-11-03T20:41:35.632Z,69.16
2017-11-03T20:44:13.384Z,68.73
2017-11-03T20:46:50.392Z,68.80
2017-11-03T20:49:27.466Z,68.83
2017-11-03T20:52:08.587Z,68.70
2017-11-03T20:54:50.304Z,68.89
2017-11-03T20:57:19.270Z,69.15
2017-11-03T20:59:58.640Z,69.06
2017-11-03T21:02:39.923Z,69.75
2017-11-03T21:05:17.937Z,70.35
2017-11-03T21:07:54.747Z,70.58
2017-11-03T21:10:35.403Z,70.41
2017-11-03T21:13:13.653Z,70.54
2017-11-03T21:15:52.255Z,70.46
2017-11-03T21:18:29.557Z,70.89
2017-11-03T21:21:06.449Z,70.94
2017-11-03T21:23:43.263Z,71.63
2017-11-03T21:26:21.046Z,71.74
2017-11-03T21:29:02.324Z,71.61
2017-11-03T21:31:40.065Z,72.02
2017-11-03T21:34:20.783Z,71.96
2017-11-03T21:37:03.897Z,71.41
2017-11-03T21:39:40.430Z,71.30
2017-11-03T21:42:19.933Z,70.98
2017-11-03T21:44:57.271Z,71.02
2017-11-03T21:47:36.882Z,71.22
2017-11-03T21:50:19.467Z,71.54
2017-11-03T21:52:58.024Z,71.34
2017-11-03T21:55:37.150Z,71.86
2017-11-03T21:58:14.183Z,71.50
2017-11-03T22:00:51.896Z,71.56
2017-11-03T22:03:30.915Z,72.25
2017-11-03T22:06:09.638Z,72.25
2017-11-03T22:08:47.341Z,72.01
2017-11-03T22:11:24.420Z,71.94
2017-11-03T22:14:02.512Z,72.06
2017-11-03T22:16:41.138Z,71.73
2017-11-03T22:19:18.837Z,71.60
2017-11-03T22:21:55.404Z,71.73
2017-11-03T22:24:39.234Z,71.84
2017-11-03T22:27:18.141Z,72.11
2017-11-03T22:29:54.866Z,72.14
2017-11-03T22:32:31.637Z,72.08
2017-11-03T22:38:06.444Z,72.08
2017-11-03T22:40:47.546Z,71.80
2017-11-03T22:43:30.091Z,72.70
2017-11-03T22:46:10.061Z,72.97
2017-11-03T22:48:50.816Z,72.80
2017-11-03T22:51:29.353Z,73.17
2017-11-03T22:54:06.416Z,72.73
2017-11-03T22:56:44.259Z,73.06
2017-11-03T23:02:15.718Z,72.76
2017-11-03T23:05:03.302Z,72.98
2017-11-03T23:07:43.724Z,72.92
2017-11-03T23:10:21.500Z,73.18
2017-11-03T23:13:07.256Z,73.20
2017-11-03T23:15:44.504Z,72.53
2017-11-03T23:18:21.422Z,72.66
2017-11-03T23:20:59.458Z,72.73
2017-11-03T23:23:31.418Z,72.90
2017-11-03T23:26:09.082Z,72.63
2017-11-03T23:28:49.051Z,72.80
2017-11-03T23:31:27.387Z,72.83
2017-11-03T23:34:08.266Z,72.76
2017-11-03T23:36:46.717Z,72.96
2017-11-03T23:39:31.027Z,73.00
2017-11-03T23:42:08.308Z,72.60
2017-11-03T23:44:52.130Z,73.36
2017-11-03T23:47:28.761Z,73.34
2017-11-03T23:50:05.836Z,73.22
2017-11-03T23:52:47.747Z,73.22
2017-11-03T23:55:26.472Z,73.10
2017-11-03T23:58:03.523Z,73.34
